Time;durP1;ratioP1;P1;durP2;ratioP2;P2;SDS_P1;SDS_P2;PMS_P1;PMS_P2;Temp;Humidity;BMP_temperature;BMP_pressure;BME280_temperature;BME280_humidity;BME280_pressure;Samples;Min_cycle;Max_cycle;Signal;HPM_P1;HPM_P2
2023/10/21 00:02:07;;;;;;;;;;;;;;;10.84;100.00;98287.09;5065268;28;1956;-79
2023/10/21 00:04:33;;;;;;;;;;;;;;;10.83;100.00;98285.47;5071976;28;1211;-79
2023/10/21 00:06:58;;;;;;;;;;;;;;;10.81;100.00;98287.44;5074207;28;1176;-79
2023/10/21 00:09:23;;;;;;;;;;;;;;;10.80;100.00;98291.84;5071120;28;1281;-78
2023/10/21 00:11:48;;;;;;;;;;;;;;;10.79;100.00;98297.22;5067691;28;1451;-79
2023/10/21 00:14:14;;;;;;;;;;;;;;;10.77;100.00;98299.19;5073618;28;1353;-78
2023/10/21 00:16:39;;;;;;;;;;;;;;;10.76;100.00;98297.56;5068554;28;1187;-78
2023/10/21 00:19:04;;;;;;;;;;;;;;;10.75;100.00;98303.75;5073174;28;1203;-79
2023/10/21 00:21:30;;;;;;;;;;;;;;;10.73;100.00;98306.53;5070001;28;1249;-79
2023/10/21 00:23:55;;;;;;;;;;;;;;;10.74;100.00;98302.16;5074506;28;1965;-78
2023/10/21 00:26:20;;;;;;;;;;;;;;;10.72;100.00;98311.91;5062403;28;1472;-79
2023/10/21 00:28:45;;;;;;;;;;;;;;;10.70;100.00;98324.25;5063024;28;1353;-79
2023/10/21 00:31:11;;;;;;;;;;;;;;;10.68;100.00;98323.66;5073165;28;1051;-79
2023/10/21 00:33:36;;;;;;;;;;;;;;;10.65;100.00;98319.63;5074229;28;1199;-79
2023/10/21 00:36:01;;;;;;;;;;;;;;;10.64;100.00;98321.41;5066617;28;1294;-78
2023/10/21 00:38:27;;;;;;;;;;;;;;;10.61;100.00;98334.78;5067415;28;1153;-79
2023/10/21 00:40:53;;;;;;;;;;;;;;;10.57;100.00;98335.31;5065016;28;1223;-80
2023/10/21 00:43:38;;;;;;;;;;;;;;;10.55;100.00;98334.69;5085073;28;1890;-79
2023/10/21 00:46:17;;;;;;;;;;;;;;;10.53;100.00;98342.66;5070006;28;1174;-78
2023/10/21 00:48:42;;;;;;;;;;;;;;;10.51;100.00;98344.63;5072728;28;1073;-79
2023/10/21 00:51:09;;;;;;;;;;;;;;;10.48;100.00;98351.97;5069535;28;1317;-79
2023/10/21 00:53:34;;;;;;;;;;;;;;;10.44;100.00;98369.69;5066576;28;1355;-79
2023/10/21 00:56:00;;;;;;;;;;;;;;;10.43;100.00;98368.06;5068418;28;1061;-79
2023/10/21 00:58:27;;;;;;;;;;;;;;;10.40;100.00;98372.84;5067505;28;1069;-79
2023/10/21 01:00:52;;;;;;;;;;;;;;;10.36;100.00;98378.38;5064410;28;1226;-79
2023/10/21 01:03:18;;;;;;;;;;;;;;;10.34;100.00;98379.56;5070260;28;1894;-79
2023/10/21 01:05:43;;;;;;;;;;;;;;;10.31;100.00;98379.91;5062862;28;1260;-78
2023/10/21 01:08:08;;;;;;;;;;;;;;;10.29;100.00;98387.06;5068736;28;1081;-79
2023/10/21 01:10:33;;;;;;;;;;;;;;;10.28;100.00;98393.25;5058696;28;1313;-79
2023/10/21 01:12:59;;;;;;;;;;;;;;;10.28;100.00;98395.81;5069192;28;1191;-79
2023/10/21 01:15:24;;;;;;;;;;;;;;;10.28;100.00;98399.22;5066411;28;1196;-79
2023/10/21 01:17:50;;;;;;;;;;;;;;;10.29;100.00;98397.44;5067297;28;1192;-78
2023/10/21 01:20:15;;;;;;;;;;;;;;;10.31;100.00;98395.44;5073636;28;1070;-79
2023/10/21 01:22:41;;;;;;;;;;;;;;;10.33;100.00;98403.84;5066164;28;1961;-79
2023/10/21 01:25:07;;;;;;;;;;;;;;;10.32;100.00;98392.69;5068852;28;1384;-79
2023/10/21 01:27:32;;;;;;;;;;;;;;;10.33;100.00;98404.66;5068962;28;1282;-78
2023/10/21 01:29:57;;;;;;;;;;;;;;;10.35;100.00;98399.28;5072777;28;1302;-79
2023/10/21 01:32:24;;;;;;;;;;;;;;;10.35;100.00;98402.69;5070877;28;1299;-79
2023/10/21 01:34:49;;;;;;;;;;;;;;;10.36;100.00;98403.47;5063783;28;1163;-79
2023/10/21 01:37:15;;;;;;;;;;;;;;;10.37;100.00;98405.06;5071742;28;1223;-79
2023/10/21 01:39:40;;;;;;;;;;;;;;;10.36;100.00;98408.66;5063738;28;1196;-78
2023/10/21 01:42:06;;;;;;;;;;;;;;;10.35;100.00;98407.06;5069385;28;1988;-79
2023/10/21 01:44:31;;;;;;;;;;;;;;;10.35;100.00;98407.06;5064708;28;1429;-79
2023/10/21 01:46:56;;;;;;;;;;;;;;;10.36;100.00;98399.09;5063023;28;1206;-79
2023/10/21 01:49:21;;;;;;;;;;;;;;;10.37;100.00;98405.06;5061453;28;1317;-77
2023/10/21 01:51:46;;;;;;;;;;;;;;;10.37;100.00;98405.88;5064981;28;1160;-79
2023/10/21 01:54:11;;;;;;;;;;;;;;;10.37;100.00;98415.44;5067264;28;1189;-78
2023/10/21 01:56:37;;;;;;;;;;;;;;;10.36;100.00;98419.03;5064109;28;1314;-78
2023/10/21 01:59:02;;;;;;;;;;;;;;;10.35;100.00;98417.41;5071479;28;1301;-79
2023/10/21 02:01:27;;;;;;;;;;;;;;;10.35;100.00;98414.84;5065625;28;1412;-79
2023/10/21 02:03:53;;;;;;;;;;;;;;;10.38;100.00;98419.66;5063528;28;2014;-79
2023/10/21 02:06:18;;;;;;;;;;;;;;;10.38;100.00;98414.47;5065287;28;1517;-78
2023/10/21 02:08:43;;;;;;;;;;;;;;;10.40;100.00;98419.47;5063550;28;1206;-79
2023/10/21 02:11:08;;;;;;;;;;;;;;;10.41;100.00;98424.47;5066280;28;1401;-78
2023/10/21 02:13:33;;;;;;;;;;;;;;;10.42;100.00;98423.47;5058420;28;1329;-79
2023/10/21 02:15:59;;;;;;;;;;;;;;;10.43;100.00;98425.06;5062033;28;1232;-79
2023/10/21 02:18:24;;;;;;;;;;;;;;;10.46;100.00;98423.91;5055274;28;1144;-78
2023/10/21 02:20:49;;;;;;;;;;;;;;;10.47;100.00;98435.88;5070411;28;1071;-79
2023/10/21 02:23:15;;;;;;;;;;;;;;;10.49;100.00;98450.25;5067507;28;1957;-79
2023/10/21 02:25:40;;;;;;;;;;;;;;;10.51;100.00;98453.50;5067201;28;1232;-79
2023/10/21 02:28:05;;;;;;;;;;;;;;;10.53;100.00;98451.50;5059314;28;1120;-79
2023/10/21 02:30:30;;;;;;;;;;;;;;;10.55;100.00;98448.72;5074251;28;1208;-79
2023/10/21 02:32:55;;;;;;;;;;;;;;;10.57;100.00;98457.13;5068153;28;1228;-78
2023/10/21 02:35:21;;;;;;;;;;;;;;;10.58;100.00;98459.53;5067970;28;1266;-78
2023/10/21 02:37:46;;;;;;;;;;;;;;;10.58;100.00;98454.34;5068718;28;1162;-79
2023/10/21 02:40:15;;;;;;;;;;;;;;;10.59;100.00;98455.94;5062496;28;1292;-79
2023/10/21 02:42:40;;;;;;;;;;;;;;;10.60;100.00;98460.16;5066202;28;1959;-79
2023/10/21 02:45:06;;;;;;;;;;;;;;;10.62;100.00;98465.97;5059126;28;1247;-79
2023/10/21 02:47:31;;;;;;;;;;;;;;;10.63;100.00;98472.75;5060224;28;1043;-78
2023/10/21 02:49:56;;;;;;;;;;;;;;;10.64;100.00;98469.16;5066206;28;1438;-79
2023/10/21 02:52:22;;;;;;;;;;;;;;;10.67;100.00;98472.38;5066310;28;1013;-79
2023/10/21 02:54:47;;;;;;;;;;;;;;;10.68;100.00;98474.00;5069826;28;1170;-79
2023/10/21 02:57:13;;;;;;;;;;;;;;;10.69;100.00;98483.38;5067834;28;1387;-79
2023/10/21 02:59:38;;;;;;;;;;;;;;;10.70;100.00;98479.81;5063914;28;1226;-78
2023/10/21 03:02:04;;;;;;;;;;;;;;;10.69;100.00;98481.59;5069310;28;2002;-79
2023/10/21 03:04:29;;;;;;;;;;;;;;;10.70;100.00;98472.03;5064870;28;1475;-78
2023/10/21 03:06:54;;;;;;;;;;;;;;;10.71;100.00;98489.19;5065129;28;1414;-79
2023/10/21 03:09:19;;;;;;;;;;;;;;;10.70;100.00;98482.41;5070935;28;1206;-79
2023/10/21 03:11:45;;;;;;;;;;;;;;;10.71;100.00;98484.00;5064614;28;1027;-79
2023/10/21 03:14:10;;;;;;;;;;;;;;;10.71;100.00;98484.00;5066226;28;1234;-79
2023/10/21 03:16:36;;;;;;;;;;;;;;;10.71;100.00;98484.00;5065382;28;1191;-79
2023/10/21 03:19:04;;;;;;;;;;;;;;;10.72;100.00;98490.78;5063209;28;1513;-79
2023/10/21 03:21:29;;;;;;;;;;;;;;;10.72;100.00;98495.97;5063272;28;1261;-79
2023/10/21 03:23:54;;;;;;;;;;;;;;;10.72;100.00;98506.34;5063346;28;1951;-79
2023/10/21 03:26:19;;;;;;;;;;;;;;;10.72;100.00;98514.13;5060114;28;1239;-80
2023/10/21 03:28:44;;;;;;;;;;;;;;;10.73;100.00;98518.34;5066352;28;1493;-79
2023/10/21 03:31:09;;;;;;;;;;;;;;;10.73;100.00;98518.34;5071172;28;1192;-79
2023/10/21 03:33:35;;;;;;;;;;;;;;;10.73;100.00;98519.13;5076086;28;1545;-79
2023/10/21 03:36:04;;;;;;;;;;;;;;;10.74;100.00;98522.53;5060026;28;1407;-79
2023/10/21 03:38:30;;;;;;;;;;;;;;;10.74;100.00;98523.34;5065798;28;1285;-79
2023/10/21 03:40:55;;;;;;;;;;;;;;;10.75;100.00;98524.13;5071188;28;1265;-79
2023/10/21 03:43:20;;;;;;;;;;;;;;;10.75;100.00;98526.72;5063844;28;1960;-78
2023/10/21 03:45:45;;;;;;;;;;;;;;;10.76;100.00;98538.69;5065874;28;1340;-79
2023/10/21 03:48:10;;;;;;;;;;;;;;;10.76;100.00;98538.69;5068953;28;1253;-79
2023/10/21 03:50:36;;;;;;;;;;;;;;;10.77;100.00;98550.66;5072149;28;1307;-79
2023/10/21 03:53:01;;;;;;;;;;;;;;;10.76;100.00;98549.06;5072202;28;1243;-78
2023/10/21 03:55:26;;;;;;;;;;;;;;;10.76;100.00;98554.25;5068421;28;1012;-77
2023/10/21 03:57:51;;;;;;;;;;;;;;;10.76;100.00;98554.25;5066170;28;1368;-79
2023/10/21 04:00:17;;;;;;;;;;;;;;;10.75;100.00;98556.03;5067631;28;1218;-79
2023/10/21 04:02:42;;;;;;;;;;;;;;;10.76;100.00;98569.81;5071132;28;1971;-79
2023/10/21 04:05:08;;;;;;;;;;;;;;;10.76;100.00;98569.81;5066247;28;1244;-79
2023/10/21 04:07:33;;;;;;;;;;;;;;;10.75;100.00;98565.63;5069061;28;1336;-79
2023/10/21 04:09:58;;;;;;;;;;;;;;;10.74;100.00;98576.97;5066806;28;1142;-78
2023/10/21 04:12:24;;;;;;;;;;;;;;;10.73;100.00;98580.56;5068502;28;1176;-79
2023/10/21 04:14:49;;;;;;;;;;;;;;;10.72;100.00;98582.31;5066767;28;1416;-79
2023/10/21 04:17:14;;;;;;;;;;;;;;;10.70;100.00;98576.53;5070832;28;1160;-79
2023/10/21 04:19:39;;;;;;;;;;;;;;;10.71;100.00;98592.88;5070756;28;1712;-78
2023/10/21 04:22:04;;;;;;;;;;;;;;;10.71;100.00;98587.69;5067468;28;1223;-79
2023/10/21 04:24:30;;;;;;;;;;;;;;;10.72;100.00;98597.06;5065597;28;1930;-79
2023/10/21 04:26:55;;;;;;;;;;;;;;;10.72;100.00;98602.25;5067233;28;1686;-78
2023/10/21 04:29:20;;;;;;;;;;;;;;;10.72;100.00;98599.66;5068611;28;1350;-78
2023/10/21 04:31:45;;;;;;;;;;;;;;;10.72;100.00;98610.03;5067274;28;1255;-79
2023/10/21 04:34:10;;;;;;;;;;;;;;;10.72;100.00;98616.03;5065216;28;1168;-79
2023/10/21 04:36:36;;;;;;;;;;;;;;;10.72;100.00;98625.59;5067268;28;1137;-79
2023/10/21 04:39:02;;;;;;;;;;;;;;;10.73;100.00;98624.63;5066205;28;1126;-78
2023/10/21 04:41:27;;;;;;;;;;;;;;;10.72;100.00;98630.78;5068235;28;1109;-79
2023/10/21 04:43:53;;;;;;;;;;;;;;;10.72;100.00;98634.19;5059616;28;1898;-79
2023/10/21 04:46:18;;;;;;;;;;;;;;;10.74;100.00;98639.19;5067547;28;1463;-78
2023/10/21 04:48:44;;;;;;;;;;;;;;;10.75;100.00;98631.22;5065160;28;1160;-80
2023/10/21 04:51:09;;;;;;;;;;;;;;;10.77;100.00;98633.63;5063383;28;1402;-79
2023/10/21 04:53:34;;;;;;;;;;;;;;;10.78;100.00;98640.44;5068771;28;1568;-79
2023/10/21 04:55:59;;;;;;;;;;;;;;;10.80;100.00;98654.03;5066700;28;1405;-79
2023/10/21 04:58:25;;;;;;;;;;;;;;;10.83;100.00;98648.47;5064168;28;1504;-78
2023/10/21 05:00:50;;;;;;;;;;;;;;;10.85;100.00;98651.72;5065867;28;1222;-79
2023/10/21 05:03:15;;;;;;;;;;;;;;;10.87;100.00;98660.91;5065388;28;1969;-78
2023/10/21 05:05:41;;;;;;;;;;;;;;;10.88;100.00;98648.75;5069740;28;1159;-79
2023/10/21 05:08:06;;;;;;;;;;;;;;;10.89;100.00;98652.94;5065773;28;1327;-79
2023/10/21 05:10:31;;;;;;;;;;;;;;;10.90;100.00;98659.75;5070526;28;1214;-77
2023/10/21 05:12:56;;;;;;;;;;;;;;;10.92;100.00;98660.38;5065218;28;1402;-79
2023/10/21 05:15:23;;;;;;;;;;;;;;;10.93;100.00;98667.16;5063087;28;1337;-79
2023/10/21 05:17:48;;;;;;;;;;;;;;;10.94;100.00;98679.16;5078863;28;1183;-79
2023/10/21 05:20:14;;;;;;;;;;;;;;;10.94;100.00;98681.75;5067880;28;1382;-79
2023/10/21 05:22:39;;;;;;;;;;;;;;;10.95;100.00;98678.16;5064715;28;1906;-79
2023/10/21 05:25:04;;;;;;;;;;;;;;;10.95;100.00;98693.72;5067383;28;1179;-79
2023/10/21 05:27:30;;;;;;;;;;;;;;;10.94;100.00;98697.31;5067122;28;1183;-79
2023/10/21 05:29:55;;;;;;;;;;;;;;;10.95;100.00;98704.09;5066186;28;1207;-79
2023/10/21 05:32:20;;;;;;;;;;;;;;;10.93;100.00;98700.88;5066243;28;1244;-78
2023/10/21 05:34:45;;;;;;;;;;;;;;;10.92;100.00;98698.47;5059958;28;1356;-79
2023/10/21 05:37:10;;;;;;;;;;;;;;;10.91;100.00;98713.25;5064829;28;1114;-79
2023/10/21 05:39:36;;;;;;;;;;;;;;;10.90;100.00;98706.44;5064134;28;1072;-80
2023/10/21 05:42:01;;;;;;;;;;;;;;;10.90;100.00;98719.41;5069492;28;1198;-78
2023/10/21 05:44:26;;;;;;;;;;;;;;;10.91;100.00;98723.63;5070681;28;1894;-79
2023/10/21 05:46:51;;;;;;;;;;;;;;;10.91;100.00;98718.41;5063066;28;1244;-78
2023/10/21 05:49:18;;;;;;;;;;;;;;;10.92;100.00;98730.41;5062392;28;1090;-79
2023/10/21 05:51:43;;;;;;;;;;;;;;;10.93;100.00;98726.03;5065793;28;1629;-78
2023/10/21 05:54:08;;;;;;;;;;;;;;;10.93;100.00;98737.19;5057446;28;1311;-78
2023/10/21 05:56:33;;;;;;;;;;;;;;;10.95;100.00;98740.41;5062928;28;1096;-79
2023/10/21 05:58:59;;;;;;;;;;;;;;;10.96;100.00;98746.44;5065209;28;1085;-79
2023/10/21 06:01:24;;;;;;;;;;;;;;;10.94;100.00;98743.19;5064232;28;1141;-79
2023/10/21 06:03:49;;;;;;;;;;;;;;;10.98;100.00;98763.41;5069243;28;1906;-79
2023/10/21 06:06:16;;;;;;;;;;;;;;;10.99;100.00;98772.78;5068929;28;1040;-79
2023/10/21 06:08:42;;;;;;;;;;;;;;;11.01;100.00;98764.81;5066944;28;1293;-79
2023/10/21 06:11:08;;;;;;;;;;;;;;;11.01;100.00;98767.41;5066075;28;1044;-79
2023/10/21 06:13:33;;;;;;;;;;;;;;;11.02;100.00;98767.25;5063431;28;1156;-78
2023/10/21 06:15:58;;;;;;;;;;;;;;;11.02;100.00;98772.44;5066810;28;1128;-79
2023/10/21 06:18:23;;;;;;;;;;;;;;;11.00;100.00;98784.78;5065571;28;1190;-79
2023/10/21 06:20:49;;;;;;;;;;;;;;;11.01;100.00;98785.56;5064790;28;1364;-79
2023/10/21 06:23:14;;;;;;;;;;;;;;;11.00;100.00;98784.78;5071030;28;1898;-79
2023/10/21 06:25:39;;;;;;;;;;;;;;;11.00;100.00;98795.16;5067629;28;1139;-79
2023/10/21 06:28:05;;;;;;;;;;;;;;;11.00;100.00;98784.78;5071343;28;1261;-79
2023/10/21 06:30:30;;;;;;;;;;;;;;;11.02;100.00;98792.41;5058410;28;1099;-79
2023/10/21 06:32:55;;;;;;;;;;;;;;;11.04;100.00;98796.41;5062730;28;1289;-78
2023/10/21 06:35:20;;;;;;;;;;;;;;;11.05;100.00;98800.63;5061727;28;1302;-79
2023/10/21 06:37:45;;;;;;;;;;;;;;;11.07;100.00;98801.25;5065072;28;1144;-80
2023/10/21 06:40:11;;;;;;;;;;;;;;;11.08;100.00;98804.66;5064197;28;1215;-79
2023/10/21 06:42:36;;;;;;;;;;;;;;;11.12;100.00;98804.09;5065436;28;1975;-79
2023/10/21 06:45:02;;;;;;;;;;;;;;;11.12;100.00;98809.28;5065145;28;1139;-79
2023/10/21 06:47:28;;;;;;;;;;;;;;;11.15;100.00;98824.50;5064132;28;1568;-80
2023/10/21 06:49:53;;;;;;;;;;;;;;;11.20;100.00;98825.78;5064417;28;1233;-80
2023/10/21 06:52:20;;;;;;;;;;;;;;;11.21;100.00;98823.00;5063989;28;1187;-79
2023/10/21 06:54:45;;;;;;;;;;;;;;;11.25;100.00;98833.84;5065885;28;1127;-79
2023/10/21 06:57:10;;;;;;;;;;;;;;;11.27;100.00;98842.25;5065840;28;1287;-79
2023/10/21 06:59:35;;;;;;;;;;;;;;;11.31;100.00;98843.50;5065772;28;1144;-80
2023/10/21 07:02:00;;;;;;;;;;;;;;;11.35;100.00;98849.94;5068645;28;1347;-79
2023/10/21 07:04:26;;;;;;;;;;;;;;;11.40;100.00;98858.00;5067766;28;1905;-79
2023/10/21 07:06:51;;;;;;;;;;;;;;;11.42;100.00;98861.22;5073107;28;1230;-80
2023/10/21 07:09:16;;;;;;;;;;;;;;;11.47;100.00;98863.28;5073944;28;1158;-78
2023/10/21 07:11:41;;;;;;;;;;;;;;;11.50;100.00;98871.53;5072385;28;1273;-78
2023/10/21 07:14:07;;;;;;;;;;;;;;;11.53;100.00;98876.38;5072629;28;1233;-79
2023/10/21 07:16:32;;;;;;;;;;;;;;;11.57;100.00;98884.59;5070114;28;1300;-79
2023/10/21 07:18:57;;;;;;;;;;;;;;;11.61;100.00;98891.84;5074200;28;1379;-79
2023/10/21 07:21:22;;;;;;;;;;;;;;;11.64;100.00;98896.69;5070506;28;1078;-79
2023/10/21 07:23:47;;;;;;;;;;;;;;;11.67;100.00;98885.94;5075551;28;1997;-80
2023/10/21 07:26:13;;;;;;;;;;;;;;;11.69;100.00;98899.53;5066357;28;1060;-79
2023/10/21 07:28:38;;;;;;;;;;;;;;;11.70;100.00;98900.38;5064927;28;1277;-79
2023/10/21 07:31:03;;;;;;;;;;;;;;;11.73;100.00;98909.56;5069436;28;1235;-80
2023/10/21 07:33:28;;;;;;;;;;;;;;;11.74;100.00;98911.19;5069480;28;1098;-79
2023/10/21 07:35:54;;;;;;;;;;;;;;;11.75;100.00;98912.78;5069216;28;1478;-79
2023/10/21 07:38:19;;;;;;;;;;;;;;;11.76;100.00;98910.03;5070212;28;1010;-79
2023/10/21 07:40:45;;;;;;;;;;;;;;;11.78;100.00;98915.03;5068484;28;1312;-79
2023/10/21 07:43:10;;;;;;;;;;;;;;;11.81;100.00;98922.47;5073990;28;1898;-79
2023/10/21 07:45:36;;;;;;;;;;;;;;;11.83;100.00;98925.72;5071946;28;1292;-78
2023/10/21 07:48:02;;;;;;;;;;;;;;;11.84;100.00;98938.53;5072388;28;1291;-78
2023/10/21 07:50:28;;;;;;;;;;;;;;;11.87;100.00;98948.56;5070271;28;1513;-79
2023/10/21 07:52:53;;;;;;;;;;;;;;;11.90;100.00;98942.19;5069089;28;1383;-79
2023/10/21 07:55:18;;;;;;;;;;;;;;;11.91;100.00;98943.81;5070993;28;1018;-79
2023/10/21 07:57:43;;;;;;;;;;;;;;;11.93;100.00;98947.06;5062844;28;1236;-80
2023/10/21 08:00:13;;;;;;;;;;;;;;;11.93;100.00;98947.06;5067423;28;1312;-78
2023/10/21 08:02:38;;;;;;;;;;;;;;;11.93;100.00;98960.84;5069433;28;1987;-79
2023/10/21 08:05:04;;;;;;;;;;;;;;;11.91;100.00;98965.41;5066090;28;1123;-80
2023/10/21 08:07:29;;;;;;;;;;;;;;;11.89;100.00;98956.19;5068934;28;1178;-78
2023/10/21 08:09:55;;;;;;;;;;;;;;;11.83;100.00;99001.06;5064237;28;1203;-80
2023/10/21 08:12:20;;;;;;;;;;;;;;;11.79;100.00;99003.16;5067774;28;1469;-78
2023/10/21 08:14:45;;;;;;;;;;;;;;;11.73;100.00;99016.84;5072756;28;1541;-78
2023/10/21 08:17:10;;;;;;;;;;;;;;;11.74;100.00;99025.44;5073728;28;1195;-78
2023/10/21 08:19:35;;;;;;;;;;;;;;;11.70;100.00;99019.81;5072237;28;1417;-79
2023/10/21 08:22:01;;;;;;;;;;;;;;;11.72;100.00;99032.63;5070799;28;1333;-80
2023/10/21 08:24:26;;;;;;;;;;;;;;;11.75;100.00;99042.66;5068502;28;1941;-79
2023/10/21 08:26:51;;;;;;;;;;;;;;;11.77;100.00;99031.13;5066003;28;1243;-80
2023/10/21 08:29:17;;;;;;;;;;;;;;;11.82;100.00;99039.22;5070662;28;1507;-80
2023/10/21 08:31:42;;;;;;;;;;;;;;;11.89;100.00;99039.31;5068394;28;1485;-80
2023/10/21 08:34:12;;;;;;;;;;;;;;;11.93;100.00;99045.78;5066237;28;1228;-79
2023/10/21 08:36:38;;;;;;;;;;;;;;;11.99;100.00;99044.25;5065073;28;1382;-80
2023/10/21 08:39:07;;;;;;;;;;;;;;;12.02;100.00;99055.09;5071982;28;965;-79
2023/10/21 08:41:37;;;;;;;;;;;;;;;12.05;100.00;99048.75;5074450;28;1253;-79
2023/10/21 08:44:02;;;;;;;;;;;;;;;12.10;100.00;99052.41;5063304;28;1984;-80
2023/10/21 08:46:30;;;;;;;;;;;;;;;12.13;100.00;99052.06;5076828;28;1322;-78
2023/10/21 08:48:55;;;;;;;;;;;;;;;12.18;100.00;99054.91;5067107;28;1362;-81
2023/10/21 08:51:21;;;;;;;;;;;;;;;12.21;100.00;99053.75;5064419;28;1706;-78
2023/10/21 08:53:48;;;;;;;;;;;;;;;12.25;100.00;99057.59;5065263;28;1510;-80
2023/10/21 08:56:13;;;;;;;;;;;;;;;12.27;100.00;99057.41;5070386;28;1222;-80
2023/10/21 08:58:39;;;;;;;;;;;;;;;12.30;100.00;99070.06;5069255;28;1161;-80
2023/10/21 09:01:05;;;;;;;;;;;;;;;12.38;100.00;99075.19;5064276;28;1306;-80
2023/10/21 09:03:31;;;;;;;;;;;;;;;12.43;100.00;99093.66;5065042;28;1902;-79
2023/10/21 09:06:12;;;;;;;;;;;;;;;12.49;100.00;99090.31;5061182;28;1553;-79
2023/10/21 09:08:38;;;;;;;;;;;;;;;12.55;100.00;99097.41;5068924;28;1087;-80
2023/10/21 09:11:10;;;;;;;;;;;;;;;12.55;100.00;99099.19;5064571;28;1176;-80
2023/10/21 09:13:36;;;;;;;;;;;;;;;12.55;100.00;99118.22;5060273;28;1136;-78
2023/10/21 09:16:25;;;;;;;;;;;;;;;12.55;100.00;99113.00;5062675;28;1188;-79
2023/10/21 09:19:06;;;;;;;;;;;;;;;12.53;100.00;99117.59;5050305;28;1634;-78
2023/10/21 09:21:33;;;;;;;;;;;;;;;12.51;100.00;99116.97;5065446;28;1399;-79
2023/10/21 09:23:59;;;;;;;;;;;;;;;12.52;100.00;99128.19;5073043;28;1972;-79
2023/10/21 09:26:35;;;;;;;;;;;;;;;12.51;100.00;99126.56;5071649;28;1212;-78
2023/10/21 09:29:04;;;;;;;;;;;;;;;12.50;100.00;99133.53;5068495;28;1144;-79
2023/10/21 09:31:49;;;;;;;;;;;;;;;12.53;100.00;99128.00;5068728;28;1238;-80
2023/10/21 09:34:24;;;;;;;;;;;;;;;12.56;100.00;99125.06;5068418;28;1244;-78
2023/10/21 09:36:49;;;;;;;;;;;;;;;12.66;100.00;99135.16;5063787;28;1363;-79
2023/10/21 09:39:16;;;;;;;;;;;;;;;12.68;100.00;99128.00;5063779;28;986;-79
2023/10/21 09:41:42;;;;;;;;;;;;;;;12.68;100.00;99139.22;5070252;28;1293;-79
2023/10/21 09:44:08;;;;;;;;;;;;;;;12.73;100.00;99129.09;5060985;28;1957;-79
2023/10/21 09:46:35;;;;;;;;;;;;;;;12.71;100.00;99154.44;5074296;28;1346;-79
2023/10/21 09:49:03;;;;;;;;;;;;;;;12.73;100.00;99157.69;5060435;28;1411;-80
2023/10/21 09:51:30;;;;;;;;;;;;;;;12.75;100.00;99155.72;5064942;28;1239;-80
2023/10/21 09:54:00;;;;;;;;;;;;;;;12.73;100.00;99168.09;5066752;28;1317;-79
2023/10/21 09:56:26;;;;;;;;;;;;;;;12.76;100.00;99169.53;5066109;28;1401;-81
2023/10/21 09:58:53;;;;;;;;;;;;;;;12.75;100.00;99175.72;5064898;28;1312;-78
2023/10/21 10:01:23;;;;;;;;;;;;;;;12.78;100.00;99175.34;5058458;28;1545;-81
2023/10/21 10:03:49;;;;;;;;;;;;;;;12.89;100.00;99181.91;5064425;28;1993;-80
2023/10/21 10:06:16;;;;;;;;;;;;;;;12.89;100.00;99181.91;5058485;28;1466;-81
2023/10/21 10:08:42;;;;;;;;;;;;;;;12.90;100.00;99189.53;5066052;28;1394;-80
2023/10/21 10:11:11;;;;;;;;;;;;;;;12.96;100.00;99187.97;5057738;28;1051;-81
2023/10/21 10:13:42;;;;;;;;;;;;;;;12.99;100.00;99193.66;5063829;28;1165;-79
2023/10/21 10:16:22;;;;;;;;;;;;;;;13.05;100.00;99197.31;5063809;28;1305;-78
2023/10/21 10:18:50;;;;;;;;;;;;;;;13.07;100.00;99200.53;5053812;28;1247;-77
2023/10/21 10:21:16;;;;;;;;;;;;;;;13.14;100.00;99205.84;5061004;28;1146;-78
2023/10/21 10:23:47;;;;;;;;;;;;;;;13.17;100.00;99206.28;5056238;28;2008;-78
2023/10/21 10:26:15;;;;;;;;;;;;;;;13.26;100.00;99205.25;5080751;28;1389;-77
2023/10/21 10:28:40;;;;;;;;;;;;;;;13.23;100.00;99221.22;5072866;28;1694;-79
2023/10/21 10:31:06;;;;;;;;;;;;;;;13.22;100.00;99219.59;5074096;28;1413;-78
2023/10/21 10:33:31;;;;;;;;;;;;;;;13.23;100.00;99216.00;5059158;28;1376;-78
2023/10/21 10:36:00;;;;;;;;;;;;;;;13.24;100.00;99212.41;5067445;28;1380;-78
2023/10/21 10:38:32;;;;;;;;;;;;;;;13.29;100.00;99219.69;5064950;28;1372;-79
2023/10/21 10:40:57;;;;;;;;;;;;;;;13.33;100.00;99225.34;5061556;28;1182;-78
2023/10/21 10:43:22;;;;;;;;;;;;;;;13.35;100.00;99233.75;5073315;28;1922;-79
2023/10/21 10:45:49;;;;;;;;;;;;;;;13.38;100.00;99238.63;5067156;28;1490;-78
2023/10/21 10:48:16;;;;;;;;;;;;;;;13.42;100.00;99235.47;5063841;28;1600;-80
2023/10/21 10:50:41;;;;;;;;;;;;;;;13.50;100.00;99226.75;5067817;28;1208;-80
2023/10/21 10:53:13;;;;;;;;;;;;;;;13.52;100.00;99240.38;5068667;28;1253;-78
2023/10/21 10:55:39;;;;;;;;;;;;;;;13.49;100.00;99244.16;5061939;28;1179;-78
2023/10/21 10:58:05;;;;;;;;;;;;;;;13.49;100.00;99245.97;5068717;28;1172;-79
2023/10/21 11:00:31;;;;;;;;;;;;;;;13.47;100.00;99237.50;5061442;28;1180;-80
2023/10/21 11:02:56;;;;;;;;;;;;;;;13.56;100.00;99252.06;5064557;28;1969;-80
2023/10/21 11:05:22;;;;;;;;;;;;;;;13.63;100.00;99247.72;5065389;28;1283;-78
2023/10/21 11:07:50;;;;;;;;;;;;;;;13.69;100.00;99252.19;5058135;28;1980;-79
2023/10/21 11:10:19;;;;;;;;;;;;;;;13.73;100.00;99253.44;5066036;28;1420;-78
2023/10/21 11:12:46;;;;;;;;;;;;;;;13.75;100.00;99263.69;5067744;28;1302;-83
2023/10/21 11:15:12;;;;;;;;;;;;;;;13.77;100.00;99259.91;5068501;28;1428;-80
2023/10/21 11:17:37;;;;;;;;;;;;;;;13.86;100.00;99259.78;5066781;28;1224;-80
2023/10/21 11:20:03;;;;;;;;;;;;;;;14.01;99.51;99255.34;5061620;28;1148;-80
2023/10/21 11:22:28;;;;;;;;;;;;;;;14.15;99.25;99246.66;5062731;28;1894;-78
2023/10/21 11:24:53;;;;;;;;;;;;;;;14.25;98.46;99254.97;5069171;28;1240;-80
2023/10/21 11:27:18;;;;;;;;;;;;;;;14.31;98.08;99266.44;5063135;28;1371;-78
2023/10/21 11:29:44;;;;;;;;;;;;;;;14.35;97.51;99257.28;5065420;28;1204;-79
2023/10/21 11:32:23;;;;;;;;;;;;;;;14.31;95.55;99262.03;5065915;28;1258;-77
2023/10/21 11:34:48;;;;;;;;;;;;;;;14.28;96.49;99267.66;5077715;28;1310;-80
2023/10/21 11:37:13;;;;;;;;;;;;;;;14.28;96.89;99266.84;5064636;28;1731;-80
2023/10/21 11:39:39;;;;;;;;;;;;;;;14.28;96.49;99270.25;5081739;28;1564;-79
2023/10/21 11:42:14;;;;;;;;;;;;;;;14.25;94.69;99260.19;5063402;28;1247;-81
2023/10/21 11:44:39;;;;;;;;;;;;;;;14.15;92.34;99262.28;5064754;28;1893;-78
2023/10/21 11:47:06;;;;;;;;;;;;;;;14.11;93.13;99276.72;5066082;28;1342;-81
2023/10/21 11:49:33;;;;;;;;;;;;;;;14.05;94.38;99277.47;5064230;28;1381;-81
2023/10/21 11:51:59;;;;;;;;;;;;;;;14.08;92.36;99271.84;5057601;28;1286;-79
2023/10/21 11:54:33;;;;;;;;;;;;;;;14.11;92.36;99276.72;5062275;28;1404;-80
2023/10/21 12:05:50;;;;;;;;;;;;;;;14.24;91.19;99282.03;5005908;28;1248;-78
2023/10/21 12:35:17;;;;;;;;;;;;;;;14.12;86.59;99293.97;5062084;28;1238;-81
2023/10/21 12:43:20;;;;;;;;;;;;;;;14.51;84.48;99297.97;5068288;28;1975;-80
2023/10/21 12:45:44;;;;;;;;;;;;;;;14.53;86.34;99290.75;5060181;28;1312;-81
2023/10/21 12:48:09;;;;;;;;;;;;;;;14.46;85.63;99285.47;5063025;28;1195;-82
2023/10/21 12:50:35;;;;;;;;;;;;;;;14.41;84.83;99281.78;5064704;28;1237;-82
2023/10/21 12:53:01;;;;;;;;;;;;;;;14.33;84.41;99291.34;5060361;28;1333;-79
2023/10/21 12:55:26;;;;;;;;;;;;;;;14.30;83.85;99291.72;5069408;28;1432;-75
2023/10/21 12:57:53;;;;;;;;;;;;;;;14.38;83.90;99295.19;5066943;28;1215;-75
2023/10/21 13:00:20;;;;;;;;;;;;;;;14.49;82.39;99300.75;5069057;28;1127;-75
2023/10/21 13:02:46;;;;;;;;;;;;;;;14.57;83.25;99286.78;5068186;28;1981;-76
2023/10/21 13:05:12;;;;;;;;;;;;;;;14.56;83.93;99291.16;5071084;28;1078;-75
2023/10/21 13:07:39;;;;;;;;;;;;;;;14.57;82.71;99286.78;5056002;28;1284;-75
2023/10/21 13:10:04;;;;;;;;;;;;;;;14.62;82.94;99284.38;5066942;28;1395;-75
2023/10/21 13:12:29;;;;;;;;;;;;;;;14.65;82.68;99289.25;5067318;28;1138;-76
2023/10/21 13:14:54;;;;;;;;;;;;;;;14.63;82.50;99290.44;5065971;28;985;-76
2023/10/21 13:17:19;;;;;;;;;;;;;;;14.61;81.35;99285.38;5063656;28;1326;-75
2023/10/21 13:19:46;;;;;;;;;;;;;;;14.59;82.17;99295.22;5074017;28;1349;-75
2023/10/21 13:22:11;;;;;;;;;;;;;;;14.55;81.84;99294.78;5077196;28;1694;-74
2023/10/21 13:24:36;;;;;;;;;;;;;;;14.52;81.52;99294.38;5080080;28;2258;-76